createdAt,value
2023-03-29T00:03:32.109Z,1021.88
2023-03-29T00:08:39.512Z,1021.72
2023-03-29T00:13:46.954Z,1021.73
2023-03-29T00:18:54.382Z,1021.75
2023-03-29T00:24:01.840Z,1021.79
2023-03-29T00:29:09.084Z,1021.53
2023-03-29T00:34:16.521Z,1021.85
2023-03-29T00:39:24.014Z,1022.06
2023-03-29T00:44:31.306Z,1022.17
2023-03-29T00:49:38.653Z,1022.08
2023-03-29T00:54:46.115Z,1021.86
2023-03-29T00:59:53.308Z,1021.92
2023-03-29T01:05:00.542Z,1021.76
2023-03-29T01:10:07.776Z,1021.67
2023-03-29T01:15:15.014Z,1021.80
2023-03-29T01:20:22.215Z,1022.01
2023-03-29T01:25:29.403Z,1022.10
2023-03-29T01:30:36.565Z,1022.20
2023-03-29T01:35:43.808Z,1022.32
2023-03-29T01:40:50.965Z,1022.24
2023-03-29T01:45:58.228Z,1021.83
2023-03-29T01:51:05.306Z,1021.88
2023-03-29T01:56:12.710Z,1021.86
2023-03-29T02:01:19.748Z,1021.91
2023-03-29T02:06:26.986Z,1021.61
2023-03-29T02:11:34.265Z,1022.12
2023-03-29T02:16:41.606Z,1021.95
2023-03-29T02:21:48.882Z,1021.74
2023-03-29T02:26:56.113Z,1021.68
2023-03-29T02:32:03.445Z,1021.52
2023-03-29T02:37:10.802Z,1021.27
2023-03-29T02:42:18.056Z,1021.26
2023-03-29T02:47:25.255Z,1021.31
2023-03-29T02:52:32.445Z,1021.08
2023-03-29T02:57:39.654Z,1020.83
2023-03-29T03:02:46.884Z,1020.83
2023-03-29T03:07:53.978Z,1020.88
2023-03-29T03:13:01.227Z,1020.88
2023-03-29T03:18:08.409Z,1020.87
2023-03-29T03:23:15.555Z,1021.00
2023-03-29T03:28:22.747Z,1020.90
2023-03-29T03:33:30.059Z,1021.09
2023-03-29T03:38:37.406Z,1020.77
2023-03-29T03:43:44.798Z,1020.81
2023-03-29T03:48:51.991Z,1020.65
2023-03-29T03:53:59.274Z,1020.31
2023-03-29T03:59:06.699Z,1020.32
2023-03-29T04:04:14.116Z,1020.35
2023-03-29T04:09:21.326Z,1020.52
2023-03-29T04:14:28.685Z,1020.59
2023-03-29T04:19:35.996Z,1020.37
2023-03-29T04:24:43.736Z,1020.80
2023-03-29T04:29:51.091Z,1020.93
2023-03-29T04:34:58.472Z,1020.35
2023-03-29T04:40:05.856Z,1020.59
2023-03-29T04:45:16.689Z,1020.80
2023-03-29T04:50:24.286Z,1020.29
2023-03-29T04:56:07.339Z,1020.46
2023-03-29T05:01:14.871Z,1020.68
2023-03-29T05:06:22.373Z,1020.83
2023-03-29T05:11:29.817Z,1020.45
2023-03-29T05:16:40.593Z,1020.77
2023-03-29T05:21:47.840Z,1020.74
2023-03-29T05:26:55.211Z,1020.89
2023-03-29T05:32:14.252Z,1020.31
2023-03-29T05:37:15.305Z,1020.67
2023-03-29T05:42:22.949Z,1020.43
2023-03-29T05:47:35.310Z,1020.30
2023-03-29T05:52:42.692Z,1020.67
2023-03-29T05:58:25.077Z,1020.60
2023-03-29T06:03:43.002Z,1020.55
2023-03-29T06:08:50.317Z,1020.70
2023-03-29T06:13:57.792Z,1020.83
2023-03-29T06:19:05.463Z,1020.93
2023-03-29T06:24:14.081Z,1021.05
2023-03-29T06:29:56.573Z,1021.15
2023-03-29T06:35:04.252Z,1020.88
2023-03-29T06:40:11.650Z,1020.97
2023-03-29T06:45:54.092Z,1021.15
2023-03-29T06:51:09.080Z,1020.85
2023-03-29T06:56:14.281Z,1020.98
2023-03-29T07:01:21.976Z,1020.67
2023-03-29T07:07:04.503Z,1020.77
2023-03-29T07:12:33.183Z,1020.85
2023-03-29T07:17:24.818Z,1021.13
2023-03-29T07:22:32.646Z,1021.05
2023-03-29T07:27:46.953Z,1021.08
2023-03-29T07:33:29.585Z,1020.84
2023-03-29T07:38:37.182Z,1020.88
2023-03-29T07:43:44.908Z,1020.86
2023-03-29T07:49:27.434Z,1020.85
2023-03-29T07:54:39.257Z,1020.76
2023-03-29T07:59:55.910Z,1020.64
2023-03-29T08:05:03.379Z,1020.76
2023-03-29T08:10:10.862Z,1020.72
2023-03-29T08:15:18.608Z,1020.75
2023-03-29T08:21:06.311Z,1020.83
2023-03-29T08:26:13.727Z,1020.79
2023-03-29T08:32:50.469Z,1020.77
2023-03-29T08:36:34.168Z,1020.88
2023-03-29T08:41:41.823Z,1020.82
2023-03-29T08:50:04.762Z,1020.82
2023-03-29T08:52:02.361Z,1020.70
2023-03-29T08:57:14.706Z,1020.82
2023-03-29T09:02:22.394Z,1020.89
2023-03-29T09:07:29.771Z,1021.03
2023-03-29T09:12:37.908Z,1020.61
2023-03-29T09:17:44.654Z,1021.14
2023-03-29T09:22:51.992Z,1021.03
2023-03-29T09:27:59.392Z,1021.09
2023-03-29T09:33:06.636Z,1020.69
2023-03-29T09:38:14.059Z,1020.57
2023-03-29T09:43:21.452Z,1020.65
2023-03-29T09:48:28.609Z,1020.73
2023-03-29T09:53:36.048Z,1020.67
2023-03-29T09:58:43.533Z,1020.54
2023-03-29T10:03:51.054Z,1020.38
2023-03-29T10:09:06.109Z,1020.21
2023-03-29T10:14:10.436Z,1020.50
2023-03-29T10:19:17.916Z,1020.34
2023-03-29T10:24:25.203Z,1020.23
2023-03-29T10:29:32.782Z,1020.56
2023-03-29T10:35:25.952Z,1020.46
2023-03-29T10:39:53.209Z,1020.27
2023-03-29T10:45:00.899Z,1020.20
2023-03-29T10:50:08.390Z,1020.56
2023-03-29T10:55:15.850Z,1020.42
2023-03-29T11:00:31.579Z,1020.50
2023-03-29T11:05:56.791Z,1020.66
2023-03-29T11:10:52.567Z,1020.39
2023-03-29T11:16:13.328Z,1020.39
2023-03-29T11:21:20.018Z,1020.29
2023-03-29T11:26:27.324Z,1020.32
2023-03-29T11:31:37.144Z,1020.41
2023-03-29T11:36:42.238Z,1020.49
2023-03-29T11:41:49.605Z,1020.49
2023-03-29T11:46:57.033Z,1020.70
2023-03-29T11:52:04.355Z,1020.22
2023-03-29T11:57:12.078Z,1020.30
2023-03-29T12:02:19.698Z,1020.21
2023-03-29T12:07:27.088Z,1020.16
2023-03-29T12:12:34.437Z,1020.15
2023-03-29T12:17:41.891Z,1020.12
2023-03-29T12:22:49.348Z,1020.01
2023-03-29T12:27:56.762Z,1019.89
2023-03-29T12:33:04.448Z,1019.54
2023-03-29T12:38:11.656Z,1019.96
2023-03-29T12:43:21.964Z,1019.80
2023-03-29T12:48:27.030Z,1019.79
2023-03-29T12:53:34.417Z,1019.55
2023-03-29T12:58:42.028Z,1019.86
2023-03-29T13:03:49.624Z,1019.57
2023-03-29T13:08:57.077Z,1019.53
2023-03-29T13:14:14.144Z,1019.40
2023-03-29T13:19:27.896Z,1019.45
2023-03-29T13:24:35.394Z,1019.46
2023-03-29T13:29:42.894Z,1019.30
2023-03-29T13:35:29.083Z,1019.15
2023-03-29T13:40:38.907Z,1019.23
2023-03-29T13:45:46.462Z,1019.10
2023-03-29T13:50:53.903Z,1019.14
2023-03-29T13:56:01.676Z,1019.12
2023-03-29T14:01:13.819Z,1019.15
2023-03-29T14:06:21.390Z,1019.10
2023-03-29T14:11:29.070Z,1018.95
2023-03-29T14:16:36.801Z,1018.86
2023-03-29T14:21:44.583Z,1018.88
2023-03-29T14:26:51.973Z,1018.79
2023-03-29T14:31:59.439Z,1018.96
2023-03-29T14:37:07.186Z,1018.90
2023-03-29T14:42:14.541Z,1018.78
2023-03-29T14:47:22.271Z,1018.79
2023-03-29T14:52:29.652Z,1018.80
2023-03-29T14:57:37.342Z,1018.73
2023-03-29T15:02:45.304Z,1018.57
2023-03-29T15:07:59.607Z,1018.58
2023-03-29T15:13:07.042Z,1018.52
2023-03-29T15:18:18.322Z,1018.68
2023-03-29T15:23:25.597Z,1018.62
2023-03-29T15:28:33.286Z,1018.47
2023-03-29T15:33:41.018Z,1018.44
2023-03-29T15:38:48.746Z,1018.35
2023-03-29T15:43:56.467Z,1018.34
2023-03-29T15:49:03.822Z,1018.41
2023-03-29T15:54:11.363Z,1018.37
2023-03-29T15:59:18.709Z,1018.28
2023-03-29T16:04:26.233Z,1018.30
2023-03-29T16:09:33.785Z,1018.15
2023-03-29T16:14:43.230Z,1018.23
2023-03-29T16:19:49.643Z,1018.23
2023-03-29T16:24:56.799Z,1018.03
2023-03-29T16:30:03.960Z,1018.09
2023-03-29T16:35:11.235Z,1018.32
2023-03-29T16:40:18.418Z,1018.35
2023-03-29T16:45:25.895Z,1018.29
2023-03-29T16:50:33.154Z,1018.34
2023-03-29T16:55:40.324Z,1018.65
2023-03-29T17:00:48.566Z,1018.74
2023-03-29T17:05:55.544Z,1018.49
2023-03-29T17:11:02.982Z,1018.60
2023-03-29T17:16:10.230Z,1018.56
2023-03-29T17:21:17.393Z,1018.57
2023-03-29T17:26:24.654Z,1018.63
2023-03-29T17:31:32.141Z,1018.63
2023-03-29T17:36:39.460Z,1018.52
2023-03-29T17:41:46.767Z,1018.50
2023-03-29T17:46:54.196Z,1018.45
2023-03-29T17:52:01.777Z,1018.39
2023-03-29T17:57:09.290Z,1018.29
2023-03-29T18:02:16.650Z,1018.34
2023-03-29T18:07:23.743Z,1018.44
2023-03-29T18:12:31.298Z,1018.37
2023-03-29T18:17:38.894Z,1018.56
2023-03-29T18:22:46.224Z,1018.62
2023-03-29T18:27:54.837Z,1018.55
2023-03-29T18:33:02.561Z,1018.75
2023-03-29T18:38:10.255Z,1018.73
2023-03-29T18:43:17.881Z,1018.66
2023-03-29T18:48:25.574Z,1018.51
2023-03-29T18:53:33.025Z,1018.55
2023-03-29T18:58:40.633Z,1018.59
2023-03-29T19:03:48.425Z,1018.47
2023-03-29T19:08:56.036Z,1018.47
2023-03-29T19:14:03.454Z,1018.66
2023-03-29T19:19:10.655Z,1018.68
2023-03-29T19:24:18.294Z,1018.75
2023-03-29T19:29:26.009Z,1018.72
2023-03-29T19:34:33.353Z,1018.95
2023-03-29T19:39:40.893Z,1018.72
2023-03-29T19:44:48.536Z,1018.82
2023-03-29T19:49:56.133Z,1018.96
2023-03-29T19:55:03.738Z,1019.07
2023-03-29T20:00:11.088Z,1019.16
2023-03-29T20:05:18.460Z,1019.58
2023-03-29T20:10:25.843Z,1019.29
2023-03-29T20:15:33.166Z,1019.61
2023-03-29T20:20:40.446Z,1019.78
2023-03-29T20:25:47.690Z,1019.76
2023-03-29T20:30:54.937Z,1019.43
2023-03-29T20:36:02.243Z,1019.46
2023-03-29T20:41:09.550Z,1019.09
2023-03-29T20:46:16.708Z,1019.09
2023-03-29T20:51:23.822Z,1018.97
2023-03-29T20:56:31.141Z,1018.94
2023-03-29T21:01:38.442Z,1018.98
2023-03-29T21:06:45.700Z,1018.94
2023-03-29T21:11:52.973Z,1018.79
2023-03-29T21:17:00.181Z,1018.91
2023-03-29T21:22:07.436Z,1018.81
2023-03-29T21:27:14.624Z,1018.64
2023-03-29T21:32:21.928Z,1018.49
2023-03-29T21:37:29.295Z,1018.49
2023-03-29T21:42:36.645Z,1018.33
2023-03-29T21:47:43.948Z,1018.30
2023-03-29T21:52:51.142Z,1018.32
2023-03-29T21:57:58.417Z,1018.20
2023-03-29T22:03:05.875Z,1018.04
2023-03-29T22:08:12.914Z,1018.25
2023-03-29T22:13:20.181Z,1018.12
2023-03-29T22:18:27.636Z,1018.05
2023-03-29T22:23:35.204Z,1017.98
2023-03-29T22:28:42.744Z,1018.01
2023-03-29T22:33:50.275Z,1017.95
2023-03-29T22:38:57.713Z,1017.92
2023-03-29T22:44:05.071Z,1017.68
2023-03-29T22:49:12.470Z,1017.85
2023-03-29T22:54:19.940Z,1017.83
2023-03-29T22:59:27.276Z,1017.90
2023-03-29T23:04:34.662Z,1017.87
2023-03-29T23:09:42.114Z,1017.79
2023-03-29T23:14:52.013Z,1017.54
2023-03-29T23:19:58.501Z,1017.58
2023-03-29T23:25:05.949Z,1017.52
2023-03-29T23:30:13.480Z,1017.61
2023-03-29T23:35:20.880Z,1017.56
2023-03-29T23:40:28.174Z,1017.41
2023-03-29T23:45:35.617Z,1017.32
2023-03-29T23:50:43.146Z,1017.30
2023-03-29T23:55:50.500Z,1017.23
